createdAt,value
2022-08-03T00:00:41.527Z,78.60
2022-08-03T00:03:10.544Z,78.66
2022-08-03T00:05:39.960Z,78.99
2022-08-03T00:08:09.160Z,78.87
2022-08-03T00:10:38.595Z,78.85
2022-08-03T00:13:07.280Z,78.97
2022-08-03T00:15:36.075Z,78.75
2022-08-03T00:18:05.065Z,78.86
2022-08-03T00:20:33.854Z,78.75
2022-08-03T00:23:02.711Z,79.09
2022-08-03T00:25:31.480Z,78.53
2022-08-03T00:28:00.329Z,78.76
2022-08-03T00:30:30.908Z,79.07
2022-08-03T00:33:00.166Z,79.33
2022-08-03T00:35:50.351Z,78.90
2022-08-03T00:38:20.311Z,79.00
2022-08-03T00:40:49.201Z,79.35
2022-08-03T00:43:19.030Z,79.19
2022-08-03T00:45:48.379Z,79.08
2022-08-03T00:48:33.109Z,79.08
2022-08-03T00:51:02.779Z,79.04
2022-08-03T00:53:31.954Z,79.24
2022-08-03T00:56:00.833Z,79.49
2022-08-03T00:58:29.720Z,79.64
2022-08-03T01:00:59.135Z,79.77
2022-08-03T01:03:27.970Z,79.29
2022-08-03T01:06:13.827Z,79.43
2022-08-03T01:09:35.739Z,79.17
2022-08-03T01:12:15.892Z,79.42
2022-08-03T01:15:29.297Z,78.96
2022-08-03T01:18:22.822Z,78.93
2022-08-03T01:20:56.922Z,78.79
2022-08-03T01:24:26.944Z,78.67
2022-08-03T01:27:10.160Z,78.36
2022-08-03T01:29:57.386Z,78.00
2022-08-03T01:33:00.249Z,77.92
2022-08-03T01:35:42.504Z,77.96
2022-08-03T01:38:16.209Z,78.40
2022-08-03T01:40:47.155Z,78.05
2022-08-03T01:44:26.443Z,78.06
2022-08-03T01:46:08.332Z,78.28
2022-08-03T01:48:39.609Z,78.54
2022-08-03T01:51:09.310Z,78.47
2022-08-03T01:53:43.103Z,78.41
2022-08-03T01:56:13.216Z,78.10
2022-08-03T01:58:42.809Z,78.02
2022-08-03T02:01:13.915Z,77.98
2022-08-03T02:03:59.972Z,77.84
2022-08-03T02:06:59.763Z,77.74
2022-08-03T02:09:23.816Z,77.72
2022-08-03T02:11:53.181Z,77.72
2022-08-03T02:14:23.048Z,77.76
2022-08-03T02:16:52.136Z,77.72
2022-08-03T02:19:20.888Z,77.87
2022-08-03T02:21:56.335Z,78.01
2022-08-03T02:24:31.444Z,78.15
2022-08-03T02:27:01.073Z,78.09
2022-08-03T02:29:40.352Z,78.12
2022-08-03T02:32:13.756Z,78.16
2022-08-03T02:34:45.585Z,78.10
2022-08-03T02:37:19.435Z,77.98
2022-08-03T02:39:49.882Z,77.68
2022-08-03T02:42:19.963Z,77.83
2022-08-03T02:44:51.863Z,77.81
2022-08-03T02:47:21.736Z,77.53
2022-08-03T02:49:52.268Z,77.64
2022-08-03T02:52:24.262Z,77.40
2022-08-03T02:54:57.329Z,77.35
2022-08-03T02:57:31.018Z,77.33
2022-08-03T03:00:00.577Z,77.26
2022-08-03T03:02:29.625Z,77.29
2022-08-03T03:05:53.533Z,77.09
2022-08-03T03:07:51.685Z,77.15
2022-08-03T03:10:26.451Z,77.16
2022-08-03T03:12:58.347Z,77.01
2022-08-03T03:15:28.915Z,76.83
2022-08-03T03:17:58.424Z,76.69
2022-08-03T03:20:29.320Z,76.73
2022-08-03T03:23:01.245Z,76.69
2022-08-03T03:25:33.968Z,76.54
2022-08-03T03:28:03.602Z,76.30
2022-08-03T03:30:35.349Z,76.21
2022-08-03T03:33:04.421Z,76.56
2022-08-03T03:35:39.040Z,76.44
2022-08-03T03:38:08.216Z,76.50
2022-08-03T03:40:38.488Z,76.49
2022-08-03T03:43:12.222Z,76.55
2022-08-03T03:45:44.207Z,76.53
2022-08-03T03:48:13.139Z,76.47
2022-08-03T03:50:42.065Z,76.48
2022-08-03T03:53:13.999Z,76.30
2022-08-03T03:55:58.975Z,75.98
2022-08-03T03:58:33.054Z,75.98
2022-08-03T04:01:02.022Z,75.93
2022-08-03T04:03:31.138Z,75.77
2022-08-03T04:06:18.609Z,75.44
2022-08-03T04:09:06.318Z,75.46
2022-08-03T04:11:48.378Z,74.87
2022-08-03T04:14:36.509Z,74.60
2022-08-03T04:17:10.133Z,74.21
2022-08-03T04:19:51.634Z,72.87
2022-08-03T04:22:26.114Z,71.62
2022-08-03T04:25:01.814Z,70.78
2022-08-03T04:27:36.971Z,70.60
2022-08-03T04:30:07.550Z,69.57
2022-08-03T04:32:37.810Z,69.50
2022-08-03T04:35:07.921Z,69.13
2022-08-03T04:37:46.263Z,68.73
2022-08-03T04:40:31.015Z,67.18
2022-08-03T04:43:00.188Z,66.74
2022-08-03T04:45:30.885Z,67.04
2022-08-03T04:48:00.160Z,66.70
2022-08-03T04:50:31.755Z,66.71
2022-08-03T04:53:07.292Z,66.33
2022-08-03T04:55:36.802Z,66.43
2022-08-03T04:58:06.523Z,66.41
2022-08-03T05:00:35.537Z,66.61
2022-08-03T05:03:04.263Z,66.05
2022-08-03T05:05:50.766Z,65.93
2022-08-03T05:08:27.761Z,65.92
2022-08-03T05:10:59.397Z,65.98
2022-08-03T05:13:28.487Z,65.74
2022-08-03T05:15:57.189Z,65.49
2022-08-03T05:18:25.961Z,65.45
2022-08-03T05:20:54.653Z,65.11
2022-08-03T05:23:23.388Z,65.15
2022-08-03T05:25:52.400Z,65.15
2022-08-03T05:28:22.658Z,64.95
2022-08-03T05:30:51.347Z,65.18
2022-08-03T05:33:20.342Z,64.92
2022-08-03T05:35:57.397Z,64.68
2022-08-03T05:38:34.932Z,64.68
2022-08-03T05:41:23.722Z,64.75
2022-08-03T05:43:55.291Z,64.31
2022-08-03T05:46:24.345Z,64.27
2022-08-03T05:48:53.310Z,64.32
2022-08-03T05:51:22.132Z,64.44
2022-08-03T05:53:50.941Z,64.00
2022-08-03T05:56:25.370Z,63.92
2022-08-03T05:58:54.336Z,63.90
2022-08-03T06:01:23.375Z,63.95
2022-08-03T06:03:52.453Z,63.79
2022-08-03T06:06:21.119Z,63.97
2022-08-03T06:08:50.019Z,64.05
2022-08-03T06:11:18.984Z,63.62
2022-08-03T06:13:47.909Z,63.53
2022-08-03T06:16:16.756Z,63.47
2022-08-03T06:18:46.277Z,63.22
2022-08-03T06:21:16.467Z,63.04
2022-08-03T06:23:55.037Z,62.88
2022-08-03T06:26:27.830Z,63.23
2022-08-03T06:28:56.812Z,63.34
2022-08-03T06:31:32.949Z,63.22
2022-08-03T06:34:33.715Z,62.46
2022-08-03T06:36:58.565Z,62.25
2022-08-03T06:39:30.764Z,61.92
2022-08-03T06:41:59.390Z,61.73
2022-08-03T06:44:28.175Z,61.84
2022-08-03T06:46:57.258Z,61.91
2022-08-03T06:49:26.733Z,62.07
2022-08-03T06:52:04.327Z,61.95
2022-08-03T06:54:36.103Z,61.49
2022-08-03T06:57:07.083Z,61.28
2022-08-03T07:00:09.608Z,61.23
2022-08-03T07:02:24.960Z,61.25
2022-08-03T07:04:57.810Z,60.61
2022-08-03T07:07:26.623Z,60.61
2022-08-03T07:09:57.790Z,60.69
2022-08-03T07:12:29.267Z,60.25
2022-08-03T07:15:01.267Z,60.13
2022-08-03T07:17:33.664Z,59.78
2022-08-03T07:20:06.805Z,59.57
2022-08-03T07:22:36.021Z,59.60
2022-08-03T07:25:05.439Z,59.11
2022-08-03T07:27:34.745Z,59.16
2022-08-03T07:30:07.059Z,58.97
2022-08-03T07:32:37.643Z,59.10
2022-08-03T07:35:24.616Z,59.18
2022-08-03T07:37:55.214Z,59.28
2022-08-03T07:40:26.980Z,58.35
2022-08-03T07:43:02.510Z,58.44
2022-08-03T07:45:34.566Z,57.75
2022-08-03T07:48:05.518Z,57.02
2022-08-03T07:50:37.751Z,56.45
2022-08-03T07:53:06.904Z,54.91
2022-08-03T07:55:35.991Z,53.77
2022-08-03T07:58:10.131Z,53.05
2022-08-03T08:00:39.356Z,52.77
2022-08-03T08:03:09.015Z,52.83
2022-08-03T08:05:38.005Z,51.91
2022-08-03T08:08:07.413Z,51.49
2022-08-03T08:10:36.346Z,52.02
2022-08-03T08:13:09.387Z,51.73
2022-08-03T08:15:42.778Z,51.47
2022-08-03T08:18:13.663Z,51.71
2022-08-03T08:20:42.799Z,51.59
2022-08-03T08:23:42.670Z,51.36
2022-08-03T08:26:01.895Z,51.54
2022-08-03T08:28:33.688Z,51.03
2022-08-03T08:31:03.117Z,51.28
2022-08-03T08:33:54.247Z,51.32
2022-08-03T08:36:21.685Z,51.27
2022-08-03T08:38:52.636Z,51.15
2022-08-03T08:41:21.853Z,51.26
2022-08-03T08:43:51.687Z,51.24
2022-08-03T08:46:23.477Z,49.78
2022-08-03T08:48:54.814Z,49.10
2022-08-03T08:51:50.981Z,48.64
2022-08-03T08:54:22.016Z,47.62
2022-08-03T08:56:54.149Z,47.24
2022-08-03T08:59:23.681Z,47.39
2022-08-03T09:01:59.210Z,47.70
2022-08-03T09:04:31.495Z,47.34
2022-08-03T09:07:19.148Z,46.42
2022-08-03T09:10:10.948Z,46.72
2022-08-03T09:12:44.968Z,47.02
2022-08-03T09:15:31.443Z,46.70
2022-08-03T09:18:03.355Z,46.67
2022-08-03T09:20:37.099Z,46.84
2022-08-03T09:23:59.747Z,46.46
2022-08-03T09:26:02.490Z,46.34
2022-08-03T09:28:59.824Z,46.42
2022-08-03T09:31:38.837Z,46.78
2022-08-03T09:34:19.588Z,46.96
2022-08-03T09:36:55.887Z,46.94
2022-08-03T09:39:41.421Z,47.08
2022-08-03T09:42:23.764Z,46.64
2022-08-03T09:44:53.317Z,46.29
2022-08-03T09:47:34.008Z,45.94
2022-08-03T09:50:08.646Z,46.39
2022-08-03T09:52:49.999Z,45.95
2022-08-03T09:56:32.891Z,45.87
2022-08-03T09:58:14.530Z,45.88
2022-08-03T10:01:05.464Z,45.62
2022-08-03T10:04:02.774Z,45.98
2022-08-03T10:06:29.145Z,45.74
2022-08-03T10:09:17.380Z,45.22
2022-08-03T10:11:47.144Z,45.53
2022-08-03T10:14:23.186Z,45.03
2022-08-03T10:16:51.913Z,45.09
2022-08-03T10:19:21.110Z,45.22
2022-08-03T10:21:57.727Z,45.10
2022-08-03T10:24:30.705Z,45.02
2022-08-03T10:27:07.361Z,45.01
2022-08-03T10:29:45.189Z,45.03
2022-08-03T10:32:22.940Z,44.47
2022-08-03T10:35:00.183Z,44.03
2022-08-03T10:37:31.335Z,44.20
2022-08-03T10:40:01.445Z,43.78
2022-08-03T10:42:35.001Z,43.62
2022-08-03T10:45:08.867Z,44.00
2022-08-03T10:47:38.047Z,44.07
2022-08-03T10:50:08.094Z,44.12
2022-08-03T10:52:45.381Z,44.07
2022-08-03T10:55:57.655Z,43.36
2022-08-03T10:58:37.808Z,43.66
2022-08-03T11:02:00.395Z,42.97
2022-08-03T11:04:32.972Z,43.03
2022-08-03T11:07:19.656Z,42.99
2022-08-03T11:09:58.527Z,43.34
2022-08-03T11:12:31.094Z,43.35
2022-08-03T11:15:07.568Z,43.77
2022-08-03T11:17:46.548Z,43.30
2022-08-03T11:21:02.520Z,43.45
2022-08-03T11:24:04.442Z,44.06
2022-08-03T11:26:35.507Z,43.96
2022-08-03T11:29:31.016Z,43.73
2022-08-03T11:32:00.004Z,43.68
2022-08-03T11:34:28.814Z,43.15
2022-08-03T11:37:27.477Z,43.39
2022-08-03T11:39:59.112Z,43.06
2022-08-03T11:42:29.424Z,43.38
2022-08-03T11:45:00.500Z,43.57
2022-08-03T11:47:30.289Z,43.84
2022-08-03T11:50:02.414Z,43.89
2022-08-03T11:52:40.583Z,43.96
2022-08-03T11:55:12.231Z,42.92
2022-08-03T11:59:00.985Z,42.83
2022-08-03T12:00:33.666Z,42.90
2022-08-03T12:03:12.520Z,41.49
2022-08-03T12:05:51.272Z,42.15
2022-08-03T12:08:27.385Z,42.56
2022-08-03T12:11:00.066Z,42.46
2022-08-03T12:14:48.375Z,41.32
2022-08-03T12:16:49.935Z,40.88
2022-08-03T12:19:19.135Z,41.87
2022-08-03T12:21:57.190Z,42.47
2022-08-03T12:24:29.873Z,42.38
2022-08-03T12:26:59.991Z,42.11
2022-08-03T12:29:29.324Z,42.37
2022-08-03T12:31:58.216Z,42.12
2022-08-03T12:34:49.483Z,40.97
2022-08-03T12:37:23.689Z,41.04
2022-08-03T12:40:02.724Z,40.97
2022-08-03T12:42:37.647Z,41.35
2022-08-03T12:45:28.769Z,40.91
2022-08-03T12:48:00.685Z,41.00
2022-08-03T12:50:38.173Z,40.44
2022-08-03T12:53:09.823Z,39.91
2022-08-03T12:55:57.856Z,40.67
2022-08-03T12:58:36.207Z,41.23
2022-08-03T13:01:09.772Z,41.76
2022-08-03T13:03:52.968Z,43.88
2022-08-03T13:06:26.763Z,45.60
2022-08-03T13:09:08.647Z,47.47
2022-08-03T13:11:55.644Z,48.42
2022-08-03T13:14:26.506Z,48.80
2022-08-03T13:16:55.442Z,48.60
2022-08-03T13:19:24.388Z,47.88
2022-08-03T13:22:04.191Z,48.06
2022-08-03T13:24:33.949Z,48.06
2022-08-03T13:28:01.232Z,48.02
2022-08-03T13:29:55.393Z,47.73
2022-08-03T13:32:24.539Z,47.82
2022-08-03T13:34:53.414Z,47.61
2022-08-03T13:37:22.501Z,47.27
2022-08-03T13:39:59.482Z,47.53
2022-08-03T13:42:32.479Z,47.43
2022-08-03T13:45:02.105Z,47.18
2022-08-03T13:47:31.090Z,47.28
2022-08-03T13:50:02.780Z,47.16
2022-08-03T13:52:35.138Z,46.69
2022-08-03T13:55:08.632Z,45.76
2022-08-03T13:58:02.350Z,45.48
2022-08-03T14:00:29.432Z,45.18
2022-08-03T14:03:12.852Z,44.37
2022-08-03T14:05:44.642Z,43.91
2022-08-03T14:08:13.855Z,43.99
2022-08-03T14:10:45.371Z,43.92
2022-08-03T14:13:17.536Z,43.97
2022-08-03T14:15:49.842Z,43.15
2022-08-03T14:18:28.270Z,42.29
2022-08-03T14:21:05.002Z,42.46
2022-08-03T14:23:38.150Z,42.58
2022-08-03T14:26:07.777Z,42.12
2022-08-03T14:28:36.809Z,42.28
2022-08-03T14:31:08.332Z,42.28
2022-08-03T14:33:44.484Z,42.01
2022-08-03T14:36:13.459Z,42.02
2022-08-03T14:38:42.246Z,42.05
2022-08-03T14:41:12.052Z,42.20
2022-08-03T14:44:02.212Z,42.19
2022-08-03T14:46:32.684Z,42.64
2022-08-03T14:50:30.698Z,42.18
2022-08-03T14:51:54.000Z,42.13
2022-08-03T14:54:23.763Z,41.44
2022-08-03T14:56:52.733Z,40.58
2022-08-03T14:59:21.487Z,41.05
2022-08-03T15:02:04.342Z,40.94
2022-08-03T15:04:36.731Z,41.32
2022-08-03T15:07:05.719Z,41.58
2022-08-03T15:09:34.702Z,41.87
2022-08-03T15:12:04.283Z,41.57
2022-08-03T15:14:34.852Z,41.96
2022-08-03T15:17:05.204Z,41.88
2022-08-03T15:20:02.752Z,41.87
2022-08-03T15:22:24.876Z,42.51
2022-08-03T15:24:56.522Z,41.82
2022-08-03T15:27:25.510Z,40.99
2022-08-03T15:30:07.212Z,40.98
2022-08-03T15:32:39.290Z,41.61
2022-08-03T15:35:08.384Z,41.55
2022-08-03T15:37:37.165Z,41.66
2022-08-03T15:40:06.720Z,42.15
2022-08-03T15:42:35.534Z,42.34
2022-08-03T15:45:04.824Z,42.33
2022-08-03T15:47:33.723Z,42.15
2022-08-03T15:50:06.534Z,41.89
2022-08-03T15:52:38.567Z,42.04
2022-08-03T15:55:08.153Z,42.35
2022-08-03T15:59:10.429Z,42.59
2022-08-03T16:00:33.322Z,42.56
2022-08-03T16:03:03.148Z,42.99
2022-08-03T16:05:32.461Z,43.29
2022-08-03T16:08:03.431Z,43.47
2022-08-03T16:10:33.668Z,43.67
2022-08-03T16:13:02.509Z,43.81
2022-08-03T16:15:31.437Z,43.94
2022-08-03T16:18:00.246Z,44.13
2022-08-03T16:20:34.033Z,44.38
2022-08-03T16:23:10.925Z,44.62
2022-08-03T16:25:42.745Z,44.98
2022-08-03T16:28:14.663Z,45.29
2022-08-03T16:30:45.544Z,45.59
2022-08-03T16:33:17.348Z,45.77
2022-08-03T16:35:49.780Z,45.99
2022-08-03T16:38:19.537Z,46.22
2022-08-03T16:40:52.295Z,46.40
2022-08-03T16:43:25.140Z,46.63
2022-08-03T16:45:53.840Z,46.63
2022-08-03T16:48:22.599Z,46.78
2022-08-03T16:50:51.547Z,47.01
2022-08-03T16:53:33.763Z,47.07
2022-08-03T16:56:10.805Z,46.87
2022-08-03T16:58:42.442Z,47.12
2022-08-03T17:01:22.230Z,47.19
2022-08-03T17:04:01.680Z,47.38
2022-08-03T17:06:37.254Z,47.51
2022-08-03T17:09:15.626Z,47.51
2022-08-03T17:11:49.920Z,47.49
2022-08-03T17:14:28.315Z,47.79
2022-08-03T17:17:03.708Z,47.60
2022-08-03T17:19:35.193Z,47.81
2022-08-03T17:22:20.220Z,47.83
2022-08-03T17:24:54.135Z,48.12
2022-08-03T17:28:48.217Z,48.16
2022-08-03T17:30:20.670Z,48.41
2022-08-03T17:32:56.816Z,48.67
2022-08-03T17:35:36.450Z,48.92
2022-08-03T17:38:10.432Z,49.05
2022-08-03T17:40:48.053Z,49.62
2022-08-03T17:44:13.453Z,49.99
2022-08-03T17:46:10.770Z,50.22
2022-08-03T17:48:42.169Z,50.48
2022-08-03T17:51:24.260Z,50.96
2022-08-03T17:54:18.802Z,50.92
2022-08-03T17:57:22.477Z,51.19
2022-08-03T18:00:29.512Z,51.34
2022-08-03T18:03:20.778Z,51.36
2022-08-03T18:06:11.106Z,51.75
2022-08-03T18:08:51.800Z,52.30
2022-08-03T18:11:35.782Z,52.33
2022-08-03T18:14:19.905Z,52.66
2022-08-03T18:16:58.318Z,52.77
2022-08-03T18:20:02.659Z,52.57
2022-08-03T18:22:21.736Z,52.93
2022-08-03T18:24:56.225Z,53.14
2022-08-03T18:27:25.246Z,53.04
2022-08-03T18:30:15.511Z,53.10
2022-08-03T18:33:00.829Z,53.92
2022-08-03T18:35:52.955Z,54.70
2022-08-03T18:38:19.763Z,54.72
2022-08-03T18:40:52.887Z,54.77
2022-08-03T18:43:22.691Z,54.55
2022-08-03T18:46:42.842Z,54.68
2022-08-03T18:49:29.117Z,55.47
2022-08-03T18:52:17.970Z,55.78
2022-08-03T18:55:20.002Z,55.91
2022-08-03T18:58:02.313Z,55.90
2022-08-03T19:00:53.873Z,56.80
2022-08-03T19:03:41.543Z,56.85
2022-08-03T19:06:20.372Z,57.27
2022-08-03T19:09:24.672Z,57.42
2022-08-03T19:12:11.039Z,57.84
2022-08-03T19:14:53.833Z,58.01
2022-08-03T19:17:23.296Z,58.50
2022-08-03T19:19:58.902Z,58.25
2022-08-03T19:22:32.372Z,58.14
2022-08-03T19:25:02.836Z,57.93
2022-08-03T19:27:32.452Z,57.98
2022-08-03T19:30:14.106Z,57.87
2022-08-03T19:32:51.890Z,57.80
2022-08-03T19:35:51.410Z,58.01
2022-08-03T19:38:10.261Z,57.92
2022-08-03T19:40:42.356Z,57.58
2022-08-03T19:43:33.001Z,57.86
2022-08-03T19:46:11.715Z,58.37
2022-08-03T19:48:54.420Z,58.46
2022-08-03T19:51:58.472Z,58.25
2022-08-03T19:54:16.506Z,58.13
2022-08-03T19:56:48.361Z,57.93
2022-08-03T19:59:20.110Z,58.02
2022-08-03T20:01:50.255Z,57.72
2022-08-03T20:04:38.995Z,57.64
2022-08-03T20:07:08.057Z,57.64
2022-08-03T20:09:38.806Z,57.45
2022-08-03T20:12:13.774Z,57.15
2022-08-03T20:14:46.372Z,57.24
2022-08-03T20:17:21.048Z,57.11
2022-08-03T20:19:53.403Z,57.19
2022-08-03T20:22:28.657Z,57.21
2022-08-03T20:24:59.879Z,57.24
2022-08-03T20:27:31.663Z,57.36
2022-08-03T20:30:26.381Z,57.41
2022-08-03T20:32:56.497Z,57.56
2022-08-03T20:35:25.414Z,57.72
2022-08-03T20:37:56.654Z,57.84
2022-08-03T20:40:28.121Z,57.91
2022-08-03T20:42:58.117Z,58.43
2022-08-03T20:45:58.230Z,58.96
2022-08-03T20:48:18.301Z,59.05
2022-08-03T20:50:51.643Z,59.55
2022-08-03T20:53:57.491Z,60.15
2022-08-03T20:56:10.173Z,60.24
2022-08-03T20:58:41.598Z,60.50
2022-08-03T21:01:10.652Z,61.06
2022-08-03T21:03:40.798Z,61.84
2022-08-03T21:06:27.363Z,62.00
2022-08-03T21:09:05.508Z,62.20
2022-08-03T21:11:41.800Z,62.33
2022-08-03T21:14:19.800Z,62.20
2022-08-03T21:16:51.796Z,62.57
2022-08-03T21:19:23.156Z,63.03
2022-08-03T21:21:52.563Z,63.01
2022-08-03T21:24:24.394Z,63.25
2022-08-03T21:26:55.340Z,63.47
2022-08-03T21:29:24.459Z,63.36
2022-08-03T21:31:53.333Z,62.94
2022-08-03T21:34:22.182Z,63.27
2022-08-03T21:36:50.968Z,63.74
2022-08-03T21:39:19.885Z,63.68
2022-08-03T21:41:48.788Z,63.77
2022-08-03T21:44:28.722Z,64.01
2022-08-03T21:46:58.921Z,63.59
2022-08-03T21:50:04.389Z,63.87
2022-08-03T21:52:20.110Z,64.77
2022-08-03T21:54:51.056Z,64.90
2022-08-03T21:57:24.364Z,65.17
2022-08-03T22:00:11.389Z,65.21
2022-08-03T22:02:54.498Z,64.92
2022-08-03T22:05:42.713Z,64.60
2022-08-03T22:08:16.164Z,65.38
2022-08-03T22:10:45.582Z,65.84
2022-08-03T22:13:18.497Z,65.83
2022-08-03T22:15:49.501Z,65.87
2022-08-03T22:18:18.342Z,65.85
2022-08-03T22:20:51.992Z,65.90
2022-08-03T22:23:23.373Z,66.09
2022-08-03T22:25:53.925Z,66.59
2022-08-03T22:28:23.711Z,66.39
2022-08-03T22:30:52.577Z,66.62
2022-08-03T22:33:21.716Z,66.32
2022-08-03T22:35:52.221Z,67.03
2022-08-03T22:38:21.034Z,67.16
2022-08-03T22:40:52.759Z,67.25
2022-08-03T22:43:27.019Z,67.10
2022-08-03T22:46:09.921Z,67.54
2022-08-03T22:48:41.839Z,68.20
2022-08-03T22:51:10.799Z,68.32
2022-08-03T22:53:40.768Z,68.23
2022-08-03T22:56:09.628Z,67.77
2022-08-03T22:58:38.312Z,67.65
2022-08-03T23:01:10.252Z,68.14
2022-08-03T23:03:59.080Z,68.57
2022-08-03T23:06:41.444Z,68.42
2022-08-03T23:09:14.088Z,67.96
2022-08-03T23:11:46.092Z,68.19
2022-08-03T23:14:18.734Z,68.81
2022-08-03T23:16:48.070Z,68.79
2022-08-03T23:19:25.514Z,69.30
2022-08-03T23:22:02.226Z,69.29
2022-08-03T23:24:36.931Z,69.08
2022-08-03T23:27:08.903Z,69.55
2022-08-03T23:29:40.148Z,70.08
2022-08-03T23:32:10.764Z,70.30
2022-08-03T23:34:58.730Z,69.83
2022-08-03T23:37:27.882Z,70.94
2022-08-03T23:39:57.641Z,70.24
2022-08-03T23:42:26.665Z,69.53
2022-08-03T23:44:59.552Z,69.74
2022-08-03T23:47:47.270Z,70.71
2022-08-03T23:50:17.464Z,70.56
2022-08-03T23:53:22.965Z,70.59
2022-08-03T23:56:20.760Z,70.84
2022-08-03T23:59:30.820Z,70.50
